x

New London Ledge Ct - Ledge Light Weather Station (ldlc3) Weather Station

2:40pm - Wed 27th Aug 2014 All times are EDT. -4 hours from GMT.

  • Wind
    6mph, 7mph gusts
  • Air Temp 77°f
  • Sea Pressure 1013.4mb
  • New London Ledge Ct - Ledge Light Weather Station
  • New London Ledge Ct - Ledge Light Weather Station

More Historic Weather Station data

Upgrade to MSW Pro to gain access to the past 30 days of data for over 8000 Wavebouys and Weather Stations around the globe.

Join Pro

Comparision Forecast

View Surf forecast
   
Wed 08/27 2:40pm 6 7 mph 1013.4mb 77f
2:25pm 3
mph
1013.7mb 80f
2:10pm 3
mph
1013.8mb 80f
1:55pm 3 5 mph 1014mb 76f
1:40pm 5 6 mph 1014mb 77f
1:25pm 5 6 mph 1014.2mb 78f
1:10pm 5 6 mph 1014.5mb 78f
12:55pm 5 6 mph 1014.7mb 76f
12:40pm 5 6 mph 1014.8mb 75f
12:25pm 3 5 mph 1014.9mb 76f
12:10pm 3 5 mph 1015.1mb 77f
11:55am 3
mph
1015.3mb 75f
11:40am 6 7 mph 1015.5mb 75f
11:25am 6 7 mph 1015.6mb 74f
11:10am 5 7 mph 1015.9mb 73f
10:55am 6
mph
1016.1mb 72f
10:40am 7
mph
1016.1mb 72f
10:25am 7 8 mph 1016.2mb 73f
10:10am 8
mph
1016.4mb 72f
9:55am 11
mph
1016.4mb 72f
9:40am 11 13 mph 1016.4mb 72f
9:25am 13 14 mph 1016.4mb 72f
9:10am 14 16 mph 1016.5mb 71f
8:55am 14 17 mph 1016.7mb 71f
8:40am 16 17 mph 1016.6mb 71f
8:25am 15 17 mph 1016.7mb 71f
8:10am 13 14 mph 1016.7mb 71f
7:55am 9 10 mph 1016.7mb 71f
7:40am 6 7 mph 1016.9mb 70f
7:25am 1 2 mph 1016.7mb 72f
7:10am 1 2 mph 1016.4mb 70f
6:55am  -  1 mph 1016.4mb 70f
6:40am  -  1 mph 1016.4mb 69f
6:25am  -  1 mph 1016.3mb 67f
6:10am  -  1 mph 1016.4mb 67f
5:55am  -  1 mph 1016.4mb 67f
5:40am 1 2 mph 1016.5mb 67f
5:25am 3
mph
1016.4mb 67f
5:10am 3 5 mph 1016.5mb 67f
4:55am 3
mph
1016.4mb 67f
4:40am 2
mph
1016.4mb 67f
4:25am 1 2 mph 1016.4mb 68f
4:10am 2
mph
1016.4mb 68f
3:55am 3 5 mph 1016.4mb 68f
3:40am 3 6 mph 1016.5mb 68f
3:25am 6 7 mph 1016.6mb 69f
3:10am 6 8 mph 1016.7mb 69f
2:55am 3 5 mph 1016.9mb 69f
2:40am 7 8 mph 1017.1mb 69f
2:25am 7 8 mph 1017.2mb 69f
2:10am 8 9 mph 1017.2mb 69f
1:55am 7 9 mph 1017.4mb 69f
1:40am 3 5 mph 1017.6mb 69f
1:25am 7
mph
1017.5mb 69f
1:10am 6 7 mph 1017.6mb 69f
Tue 08/26 7:55pm 9 10 mph 1018.7mb 71f
7:40pm 10 11 mph 1018.6mb 71f
7:25pm 10 11 mph 1018.6mb 71f
7:10pm 10 11 mph 1018.7mb 71f
6:55pm 11 13 mph 1018.6mb 71f
6:40pm 11
mph
1018.6mb 71f
6:25pm 11 13 mph 1018.5mb 71f
6:10pm 13 14 mph 1018.5mb 71f
5:55pm 13 14 mph 1018.7mb 71f
5:40pm 11 14 mph 1018.7mb 71f
5:25pm 14 16 mph 1018.7mb 71f
5:10pm 13 14 mph 1019.1mb 71f
4:55pm 13 15 mph 1019.2mb 71f
4:40pm 13 14 mph 1019.2mb 71f
4:25pm 11 13 mph 1019.3mb 71f
4:10pm 10 13 mph 1019.5mb 71f
3:55pm 10 11 mph 1019.6mb 71f
3:40pm 10 11 mph 1019.7mb 71f
3:25pm 10 11 mph 1020mb 71f
3:10pm 11
mph
1020mb 71f
2:55pm 11
mph
1020.3mb 71f
2:40pm 13 14 mph 1020.4mb 70f
2:25pm 10 11 mph 1020.6mb 71f
2:10pm 9 11 mph 1020.6mb 71f
1:55pm 7 8 mph 1020.6mb 72f
1:40pm 7
mph
1020.6mb 74f
1:25pm 6 7 mph 1020.4mb 74f
1:10pm 6 7 mph 1020.7mb 72f
12:55pm 5 6 mph 1020.8mb 75f
12:40pm 3 5 mph 1020.9mb 76f
12:25pm 3 5 mph 1020.8mb 74f
12:10pm 5
mph
1021.1mb 75f
11:55am 5
mph
1021.1mb 74f
11:40am 5 6 mph 1021.2mb 74f
11:25am 5 6 mph 1021.3mb 71f
11:10am 5 6 mph 1021.4mb 73f
10:55am 3
mph
1021.5mb 75f
10:40am 2 3 mph 1021.5mb 72f
10:25am 1 2 mph 1021.5mb 73f
10:10am 2
mph
1021.5mb 73f
9:55am 2 3 mph 1021.5mb 71f
9:40am 3 5 mph 1021.5mb 69f
9:25am 3
mph
1021.5mb 71f
9:10am 2 3 mph 1021.6mb 71f
8:55am 2
mph
1021.5mb 72f
8:40am 1 2 mph 1021.6mb 71f
8:25am  -  1 mph 1021.7mb 73f
8:10am 1 2 mph 1021.7mb 72f
7:55am 1 2 mph 1021.5mb 71f
7:40am 1 2 mph 1021.5mb 71f
7:25am 1 2 mph 1021.3mb 70f
7:10am 2 3 mph 1021.2mb 68f
6:55am 3
mph
1021.2mb 66f
6:40am 2 3 mph 1021.1mb 65f
6:25am 3
mph
1020.8mb 65f
6:10am 3 5 mph 1020.8mb 65f
5:55am 3 5 mph 1020.7mb 65f
5:40am 3
mph
1020.7mb 65f
5:25am 1 2 mph 1020.4mb 66f
5:10am 3
mph
1020.3mb 66f
4:55am 3
mph
1020.2mb 66f
4:40am 3 5 mph 1020.2mb 66f
4:25am 5
mph
1020.1mb 66f
4:10am 3 5 mph 1020mb 66f
3:55am 2 3 mph 1020.2mb 67f
3:40am 2 3 mph 1020.2mb 67f
3:25am 3 5 mph 1020.2mb 67f
3:10am 3 5 mph 1020.2mb 68f
2:55am 2 3 mph 1020.1mb 67f
2:40am 2 3 mph 1020mb 68f
2:25am 3 5 mph 1020mb 68f
2:10am 5
mph
1020.1mb 68f
1:55am 3 5 mph 1020.3mb 68f
1:40am 5
mph
1020.1mb 68f
1:25am 3
mph
1020.3mb 68f
1:10am 3 5 mph 1020.4mb 68f
Mon 08/25 7:55pm 6
mph
1020.1mb 70f
7:40pm 8 9 mph 1019.9mb 70f
7:25pm 7 8 mph 1019.7mb 71f
7:10pm 7 8 mph 1019.7mb 71f
6:55pm 8
mph
1019.6mb 72f
6:40pm 5 6 mph 1019.5mb 73f
6:25pm 5 6 mph 1019.3mb 73f
6:10pm 5
mph
1019.1mb 73f
5:55pm 2
mph
1019.1mb 73f
5:40pm 5 6 mph 1019.1mb 73f
5:25pm 2 3 mph 1019.1mb 74f
5:10pm 2 3 mph 1019.1mb 75f
4:55pm 5 7 mph 1019.1mb 74f
4:40pm 6 7 mph 1019.1mb 76f
4:25pm 5 6 mph 1019.1mb 77f
4:10pm 3 5 mph 1019.1mb 76f
3:55pm 3 5 mph 1019.2mb 75f
3:40pm 6 7 mph 1019.2mb 75f
3:25pm 7 8 mph 1019.5mb 75f
3:10pm 9 10 mph 1019.3mb 76f
2:55pm 7 8 mph 1019.3mb 74f
2:40pm 8 9 mph 1019.5mb 74f
2:25pm 10 11 mph 1019.5mb 74f
2:10pm 11
mph
1019.4mb 75f
1:55pm 10 11 mph 1019.7mb 75f
1:40pm 10 11 mph 1019.7mb 75f
1:25pm 8
mph
1019.7mb 76f
1:10pm 5 7 mph 1019.8mb 78f
12:55pm 6 8 mph 1019.8mb 76f
12:40pm 7
mph
1020.1mb 75f
12:25pm 7 9 mph 1020.3mb 75f
12:10pm 7
mph
1020.4mb 75f
11:55am 7 9 mph 1020.6mb 74f
11:40am 5 7 mph 1020.6mb 77f
11:25am 3 7 mph 1020.6mb 76f
11:10am 8 10 mph 1020.6mb 79f
10:55am 10 11 mph 1020.6mb 78f
10:40am 13 14 mph 1020.4mb 77f
10:25am 14 15 mph 1020.4mb 74f
10:10am 14 15 mph 1020.4mb 74f
9:55am 14 16 mph 1020.4mb 74f
9:40am 15 16 mph 1020.2mb 73f
9:25am 14 15 mph 1020.3mb 72f
9:10am 15 16 mph 1020.3mb 71f
8:55am 16
mph
1020.3mb 71f
8:40am 13 15 mph 1020.3mb 70f
8:25am 9 11 mph 1020.2mb 69f
8:10am 9 10 mph 1020.2mb 68f
7:55am 9 10 mph 1020.2mb 67f
7:40am 9 11 mph 1020.2mb 65f
7:25am 5 8 mph 1020.3mb 65f
7:10am 3 6 mph 1020.2mb 64f
6:55am 6 7 mph 1020.2mb 63f
6:40am 6 7 mph 1020.2mb 63f
6:25am 6 7 mph 1020.2mb 62f
6:10am 6 8 mph 1020.2mb 62f
5:55am 5 6 mph 1020.1mb 62f
5:40am 3 5 mph 1020mb 62f
5:25am 3 6 mph 1019.8mb 62f
5:10am 6 7 mph 1019.7mb 62f
4:55am 7 8 mph 1019.7mb 62f
4:40am 5 6 mph 1019.5mb 62f
4:25am 3 5 mph 1019.7mb 62f
4:10am 3 5 mph 1019.6mb 62f
3:55am 3 5 mph 1019.7mb 63f
3:40am 5 6 mph 1019.7mb 63f
3:25am 5 6 mph 1019.7mb 63f
3:10am 3 5 mph 1019.7mb 63f
2:55am 3 5 mph 1019.7mb 63f
2:40am 5 6 mph 1019.7mb 64f
2:25am 6 7 mph 1019.8mb 64f
2:10am 5 6 mph 1020mb 64f
1:55am 6 7 mph 1019.9mb 64f
1:40am 6 7 mph 1019.9mb 64f
1:25am 7
mph
1020.1mb 64f
1:10am 6 7 mph 1020.2mb 64f
Sun 08/24 7:55pm 2 3 mph 1019.7mb 68f
7:40pm 2 3 mph 1019.8mb 69f
7:25pm 2
mph
1019.8mb 69f
7:10pm 3
mph
1019.7mb 70f
6:55pm 3 5 mph 1019.8mb 71f
6:40pm 3 5 mph 1019.8mb 71f
6:25pm 3
mph
1019.7mb 71f
6:10pm 5
mph
1019.7mb 72f
5:55pm 3 5 mph 1019.5mb 70f
5:40pm 3 5 mph 1019.5mb 70f
5:25pm 5
mph
1019.4mb 69f
5:10pm 5 6 mph 1019.6mb 69f
4:55pm 6 7 mph 1019.6mb 69f
4:40pm 7
mph
1019.5mb 69f
4:25pm 7
mph
1019.6mb 69f
4:10pm 7 8 mph 1019.5mb 68f
3:55pm 7 8 mph 1019.5mb 69f
3:40pm 7
mph
1019.7mb 69f
3:25pm 8 9 mph 1019.8mb 69f
3:10pm 9
mph
1019.7mb 68f
2:55pm 8 9 mph 1019.8mb 69f
2:40pm 6 7 mph 1019.8mb 69f
2:25pm 8 9 mph 1019.7mb 68f
2:10pm 9 10 mph 1019.9mb 68f
1:55pm 8
mph
1019.9mb 69f
1:40pm 7 8 mph 1019.9mb 71f
1:25pm 8 9 mph 1019.8mb 69f
1:10pm 11
mph
1019.8mb 68f
12:55pm 10 11 mph 1019.8mb 68f
12:40pm 11 13 mph 1019.8mb 68f
12:25pm 10 11 mph 1019.8mb 68f
12:10pm 10 11 mph 1019.9mb 68f
11:55am 8 9 mph 1020.1mb 69f
11:40am 6 7 mph 1020.2mb 70f
11:25am 3 6 mph 1020.1mb 71f
11:10am 6 7 mph 1020mb 72f
10:55am 8 13 mph 1020.2mb 71f
10:40am 6 9 mph 1020.2mb 71f
10:25am 6 9 mph 1020.2mb 71f
10:10am 5 7 mph 1020.2mb 71f
9:55am 7 10 mph 1020.2mb 70f
9:40am 6 8 mph 1020.1mb 70f
9:25am 7 9 mph 1020.1mb 68f
9:10am 9 10 mph 1020.2mb 68f
8:55am 9 10 mph 1020.1mb 66f
8:40am 10 11 mph 1019.9mb 65f
8:25am 11 13 mph 1019.8mb 62f
8:10am 11 13 mph 1019.9mb 63f
7:55am 13 14 mph 1019.9mb 62f
7:40am 14 15 mph 1019.8mb 60f
7:25am 13 15 mph 1019.7mb 60f
7:10am 14 15 mph 1019.7mb 60f
6:55am 14 15 mph 1019.7mb 60f
6:40am 11 14 mph 1019.5mb 61f
6:25am 10 11 mph 1019.3mb 61f
6:10am 9 10 mph 1019.2mb 61f
5:55am 11 13 mph 1019.1mb 61f
5:40am 13 14 mph 1019mb 61f
5:25am 13 14 mph 1019mb 61f
5:10am 10 13 mph 1019mb 61f
4:55am 9 11 mph 1019mb 61f
4:40am 9 10 mph 1019mb 61f
4:25am 14 16 mph 1019mb 61f
4:10am 13 15 mph 1019mb 60f
3:55am 13 14 mph 1019mb 61f
3:40am 13 14 mph 1019.1mb 60f
3:25am 14 15 mph 1019.1mb 61f
3:10am 14 16 mph 1019.1mb 60f
2:55am 10 14 mph 1019.1mb 60f
2:40am 10 13 mph 1019.1mb 60f
2:25am 9 10 mph 1019.4mb 61f
2:10am 9 10 mph 1019.4mb 62f
1:55am 10 13 mph 1019.5mb 62f
1:40am 9 11 mph 1019.4mb 62f
1:25am 9 10 mph 1019.4mb 62f
1:10am 7 8 mph 1019.6mb 62f
Sat 08/23 7:55pm 6
mph
1018.9mb 69f
7:40pm 3 5 mph 1018.8mb 69f